Korex Spb No.2 — D8BI — position and weather

sailwx.info

Track history (hours):
 
Tides and Currents Weather Stations Pressure Air Temp Water Temp Dewpoint Dewpoint Depression Visibility Wind Speed Wind Dir Waves Ship Positions

Korex Spb No.2

Last reported at 2018-Jun-19 04:28 UTC. Time now 2018-Jun-21 23:45 UTC.
Position N 01°26' E 104°30'.

Length 152 m; draft 4.2 m.

Type: Cargo ship. MMSI: 441954000.

Date/timePositionNaut miles runAvg speedWind from/ knotsBaromVisibWave heightAir tempDewpointWater temp
2018-Jun-19 04:28N 01°26' E 104°30'510.2
2018-Jun-19 03:59N 01°23' E 104°26'511.1
2018-Jun-19 03:30N 01°19' E 104°22'611.1
2018-Jun-19 02:58N 01°17' E 104°17'611.7
2018-Jun-19 02:28N 01°16' E 104°11'511.8
2018-Jun-19 02:01N 01°15' E 104°06'611.2
2018-Jun-19 01:30N 01°14' E 104°00'510.4
2018-Jun-19 00:59N 01°15' E 103°55'2 2.3
2018-Jun-19 00:13N 01°16' E 103°54'0 0.0
2018-Jun-18 23:47N 01°16' E 103°54'0 0.0
2018-Jun-18 23:30N 01°16' E 103°54'0 0.0
2018-Jun-18 22:56N 01°16' E 103°54'0 0.0
2018-Jun-18 22:30N 01°16' E 103°54'0 0.0
2018-Jun-18 22:00N 01°16' E 103°54'0 0.0
2018-Jun-18 21:30N 01°16' E 103°54'0 0.0
2018-Jun-18 21:01N 01°16' E 103°54'0 0.0
2018-Jun-18 20:30N 01°16' E 103°54'0 0.0
2018-Jun-18 20:01N 01°16' E 103°54'0 0.0
2018-Jun-18 19:29N 01°16' E 103°54'0 0.0
2018-Jun-18 18:59N 01°16' E 103°54'0 0.1
2018-Jun-18 18:30N 01°16' E 103°54'0 0.0
2018-Jun-18 18:00N 01°16' E 103°54'0 0.0
2018-Jun-18 17:30N 01°16' E 103°54'0 0.0
2018-Jun-18 17:00N 01°16' E 103°54'0 0.0
2018-Jun-18 16:30N 01°16' E 103°54'0 0.0
2018-Jun-18 15:59N 01°16' E 103°54'0 0.0
2018-Jun-18 15:30N 01°16' E 103°54'0 0.0
2018-Jun-18 14:59N 01°16' E 103°54'0 0.0
2018-Jun-18 14:30N 01°16' E 103°54'0 0.0
2018-Jun-18 13:59N 01°16' E 103°54'0 0.0
2018-Jun-18 13:30N 01°16' E 103°54'0 0.0
2018-Jun-18 12:56N 01°16' E 103°54'0 0.0
2018-Jun-18 12:30N 01°16' E 103°54'0 0.0
2018-Jun-18 12:00N 01°16' E 103°54'0 0.0
2018-Jun-18 11:31N 01°16' E 103°54'0 0.0
2018-Jun-18 11:00N 01°16' E 103°54'0 0.0
2018-Jun-18 10:30N 01°16' E 103°54'0 0.0
2018-Jun-18 10:00N 01°16' E 103°54'0 0.0
2018-Jun-18 09:30N 01°16' E 103°54'0 0.0
2018-Jun-18 09:01N 01°16' E 103°54'0 0.0
2018-Jun-18 08:30N 01°16' E 103°54'0 0.0
2018-Jun-18 08:00N 01°16' E 103°54'0 0.0
2018-Jun-18 07:30N 01°16' E 103°54'0 0.0
2018-Jun-18 07:00N 01°16' E 103°54'0 0.0
2018-Jun-18 06:30N 01°16' E 103°54'0 0.0
2018-Jun-18 06:00N 01°16' E 103°54'0 0.0
2018-Jun-18 05:30N 01°16' E 103°54'0 0.0
2018-Jun-18 05:00N 01°16' E 103°54'0 0.0
2018-Jun-18 04:30N 01°16' E 103°54'0 0.0
2018-Jun-18 04:00N 01°16' E 103°54'0 0.0
2018-Jun-18 03:30N 01°16' E 103°54'0 0.1
2018-Jun-18 03:00N 01°16' E 103°54'0 0.1
2018-Jun-18 02:30N 01°16' E 103°54'0 0.0
2018-Jun-18 02:00N 01°16' E 103°54'0 0.1
2018-Jun-18 01:30N 01°16' E 103°54'2 3.0
2018-Jun-18 01:00N 01°16' E 103°55'2 4.5
2018-Jun-18 00:30N 01°15' E 103°57'5 8.8
2018-Jun-18 00:00N 01°16' E 104°01'5 9.3
2018-Jun-17 23:29N 01°16' E 104°06'4 8.8
2018-Jun-17 23:00N 01°17' E 104°10'4 8.2
2018-Jun-17 22:29N 01°18' E 104°14'4 7.5
2018-Jun-17 22:00N 01°19' E 104°18'4 7.7
2018-Jun-17 21:30N 01°20' E 104°21'4 7.5
2018-Jun-17 20:58N 01°23' E 104°24'4 8.0
2018-Jun-17 20:30N 01°25' E 104°27'5 7.9
2018-Jun-17 19:49N 01°30' E 104°29'3 8.2
2018-Jun-17 19:29N 01°33' E 104°29'5 0.2
2018-Jun-16 21:18N 01°34' E 104°24'0 0.0
2018-Jun-15 20:54N 01°34' E 104°24'0 0.0
2018-Jun-15 19:12N 01°34' E 104°24'0 0.0
2018-Jun-15 16:42N 01°34' E 104°24'0 0.0
2018-Jun-15 14:03N 01°34' E 104°24'0 0.0
2018-Jun-15 13:42N 01°34' E 104°24'0 0.0
2018-Jun-15 13:26N 01°34' E 104°24'0 0.0
2018-Jun-14 17:48N 01°34' E 104°24'0 0.0
2018-Jun-14 17:21N 01°34' E 104°24'0 0.0
2018-Jun-13 19:02N 01°34' E 104°24'0 0.0
2018-Jun-13 18:47N 01°34' E 104°24'0 0.0
2018-Jun-13 18:17N 01°34' E 104°24'0 0.0
2018-Jun-13 16:27N 01°34' E 104°24'0 0.0
2018-Jun-13 15:09N 01°34' E 104°24'0 0.0
2018-Jun-13 14:54N 01°34' E 104°24'0 0.0
2018-Jun-13 14:24N 01°34' E 104°24'0 0.0
2018-Jun-13 13:29N 01°34' E 104°24'0 0.0
2018-Jun-13 12:57N 01°34' E 104°24'0 0.0
2018-Jun-12 20:36N 01°34' E 104°24'0 0.0
2018-Jun-11 16:30N 01°34' E 104°24'0 0.0
2018-Jun-09 15:19N 01°34' E 104°24'  
Track history (hours):
 
Tides and Currents Weather Stations Pressure Air Temp Water Temp Dewpoint Dewpoint Depression Visibility Wind Speed Wind Dir Waves Ship Positions

Korex Spb No.2

Last reported at 2018-Jun-19 04:28 UTC. Time now 2018-Jun-21 23:45 UTC.
Position N 01°26' E 104°30'.

Length 152 m; draft 4.2 m.

Type: Cargo ship. MMSI: 441954000.

Date/timePositionNaut miles runAvg speedWind from/ knotsBaromVisibWave heightAir tempDewpointWater temp
2018-Jun-19 04:28N 01°26' E 104°30'510.2
2018-Jun-19 03:59N 01°23' E 104°26'511.1
2018-Jun-19 03:30N 01°19' E 104°22'611.1
2018-Jun-19 02:58N 01°17' E 104°17'611.7
2018-Jun-19 02:28N 01°16' E 104°11'511.8
2018-Jun-19 02:01N 01°15' E 104°06'611.2
2018-Jun-19 01:30N 01°14' E 104°00'510.4
2018-Jun-19 00:59N 01°15' E 103°55'2 2.3
2018-Jun-19 00:13N 01°16' E 103°54'0 0.0
2018-Jun-18 23:47N 01°16' E 103°54'0 0.0
2018-Jun-18 23:30N 01°16' E 103°54'0 0.0
2018-Jun-18 22:56N 01°16' E 103°54'0 0.0
2018-Jun-18 22:30N 01°16' E 103°54'0 0.0
2018-Jun-18 22:00N 01°16' E 103°54'0 0.0
2018-Jun-18 21:30N 01°16' E 103°54'0 0.0
2018-Jun-18 21:01N 01°16' E 103°54'0 0.0
2018-Jun-18 20:30N 01°16' E 103°54'0 0.0
2018-Jun-18 20:01N 01°16' E 103°54'0 0.0
2018-Jun-18 19:29N 01°16' E 103°54'0 0.0
2018-Jun-18 18:59N 01°16' E 103°54'0 0.1
2018-Jun-18 18:30N 01°16' E 103°54'0 0.0
2018-Jun-18 18:00N 01°16' E 103°54'0 0.0
2018-Jun-18 17:30N 01°16' E 103°54'0 0.0
2018-Jun-18 17:00N 01°16' E 103°54'0 0.0
2018-Jun-18 16:30N 01°16' E 103°54'0 0.0
2018-Jun-18 15:59N 01°16' E 103°54'0 0.0
2018-Jun-18 15:30N 01°16' E 103°54'0 0.0
2018-Jun-18 14:59N 01°16' E 103°54'0 0.0
2018-Jun-18 14:30N 01°16' E 103°54'0 0.0
2018-Jun-18 13:59N 01°16' E 103°54'0 0.0
2018-Jun-18 13:30N 01°16' E 103°54'0 0.0
2018-Jun-18 12:56N 01°16' E 103°54'0 0.0
2018-Jun-18 12:30N 01°16' E 103°54'0 0.0
2018-Jun-18 12:00N 01°16' E 103°54'0 0.0
2018-Jun-18 11:31N 01°16' E 103°54'0 0.0
2018-Jun-18 11:00N 01°16' E 103°54'0 0.0
2018-Jun-18 10:30N 01°16' E 103°54'0 0.0
2018-Jun-18 10:00N 01°16' E 103°54'0 0.0
2018-Jun-18 09:30N 01°16' E 103°54'0 0.0
2018-Jun-18 09:01N 01°16' E 103°54'0 0.0
2018-Jun-18 08:30N 01°16' E 103°54'0 0.0
2018-Jun-18 08:00N 01°16' E 103°54'0 0.0
2018-Jun-18 07:30N 01°16' E 103°54'0 0.0
2018-Jun-18 07:00N 01°16' E 103°54'0 0.0
2018-Jun-18 06:30N 01°16' E 103°54'0 0.0
2018-Jun-18 06:00N 01°16' E 103°54'0 0.0
2018-Jun-18 05:30N 01°16' E 103°54'0 0.0
2018-Jun-18 05:00N 01°16' E 103°54'0 0.0
2018-Jun-18 04:30N 01°16' E 103°54'0 0.0
2018-Jun-18 04:00N 01°16' E 103°54'0 0.0
2018-Jun-18 03:30N 01°16' E 103°54'0 0.1
2018-Jun-18 03:00N 01°16' E 103°54'0 0.1
2018-Jun-18 02:30N 01°16' E 103°54'0 0.0
2018-Jun-18 02:00N 01°16' E 103°54'0 0.1
2018-Jun-18 01:30N 01°16' E 103°54'2 3.0
2018-Jun-18 01:00N 01°16' E 103°55'2 4.5
2018-Jun-18 00:30N 01°15' E 103°57'5 8.8
2018-Jun-18 00:00N 01°16' E 104°01'5 9.3
2018-Jun-17 23:29N 01°16' E 104°06'4 8.8
2018-Jun-17 23:00N 01°17' E 104°10'4 8.2
2018-Jun-17 22:29N 01°18' E 104°14'4 7.5
2018-Jun-17 22:00N 01°19' E 104°18'4 7.7
2018-Jun-17 21:30N 01°20' E 104°21'4 7.5
2018-Jun-17 20:58N 01°23' E 104°24'4 8.0
2018-Jun-17 20:30N 01°25' E 104°27'5 7.9
2018-Jun-17 19:49N 01°30' E 104°29'3 8.2
2018-Jun-17 19:29N 01°33' E 104°29'5 0.2
2018-Jun-16 21:18N 01°34' E 104°24'0 0.0
2018-Jun-15 20:54N 01°34' E 104°24'0 0.0
2018-Jun-15 19:12N 01°34' E 104°24'0 0.0
2018-Jun-15 16:42N 01°34' E 104°24'0 0.0
2018-Jun-15 14:03N 01°34' E 104°24'0 0.0
2018-Jun-15 13:42N 01°34' E 104°24'0 0.0
2018-Jun-15 13:26N 01°34' E 104°24'0 0.0
2018-Jun-14 17:48N 01°34' E 104°24'0 0.0
2018-Jun-14 17:21N 01°34' E 104°24'0 0.0
2018-Jun-13 19:02N 01°34' E 104°24'0 0.0
2018-Jun-13 18:47N 01°34' E 104°24'0 0.0
2018-Jun-13 18:17N 01°34' E 104°24'0 0.0
2018-Jun-13 16:27N 01°34' E 104°24'0 0.0
2018-Jun-13 15:09N 01°34' E 104°24'0 0.0
2018-Jun-13 14:54N 01°34' E 104°24'0 0.0
2018-Jun-13 14:24N 01°34' E 104°24'0 0.0
2018-Jun-13 13:29N 01°34' E 104°24'0 0.0
2018-Jun-13 12:57N 01°34' E 104°24'0 0.0
2018-Jun-12 20:36N 01°34' E 104°24'0 0.0
2018-Jun-11 16:30N 01°34' E 104°24'0 0.0
2018-Jun-09 15:19N 01°34' E 104°24'  

Dump ship's entire track history